Terminal Aerodrome Forecast
Issued by NWS

Home | Current Version | Previous Version | Text Only | Print | Product List | Glossary On
Versions: 1 2 3 4 5 6 7 8 9 10 11 12 13 14 15
000
FTUS45 KRIW 130500
TAFCOD
TAF
KCOD 130522Z 1306/1406 24006KT P6SM FEW110
     FM131800 03006KT P6SM SCT100 SCT140
     FM132300 01008KT P6SM VCSH BKN090
      AMD LTD TO CLD VIS AND WIND=

USA.gov is the U.S. government's official web portal to all federal, state and local government web resources and services.